Bluff Springs, Texas
Current Conditions -  °F | °C
As of 4:53 PM on Friday 28 Nov 2014 (Local Time) from KAUS Reporting Station
Clear Clear  
Wind Chill: 70°   Ceiling: Unl
Heat Index: 70°   Visibility: 10mi
Dew Point: 46°   Wind: 15mph
Humidity: 42%   Direction: 190°S
Pressure: 30.11"   Gusts: NA
Location:  30.1791°N, 97.7294°W
Report Text: KAUS 282253Z 19013KT 10SM CLR 21/08 A3011 RMK AO2 SLP196 T02110078
Loading
Personal Weather Stations






























Interactive Weather Map New forecast layout! Learn more

10-Day Weather Forecast

Advertisements
Track Severe Weather on mobile